Walker, KY (40997)

4:21 PM EST on January 30, 2015 (GMT -0500)
KYMN Barbourville 3 E KY US | Change Station
CLOSE
Current Station
Personal Weather Station
Location: Bimble, KY
Elevation: 1016 ft
Nearby Weather Stations

Elev 1016 ft 36.87 °N, 83.83 °W | Updated 51 minutes ago

Clear
Clear
39 °F
Feels Like 35 °F
N
5
Wind Variable Wind from North
Gusts 9.0 mph

Today
High -- | Low -- °F
--% Chance of Precip.
Yesterday
High -- | Low -- °F
Precip. -- in
7:38 AM 5:57 PM
Waxing Gibbous, 85% visible
Pressure 30.33 in
Visibility 10.0 miles
Clouds Scattered Clouds 4200 ft
Windchill 35 °F
Dew Point 17 °F
Humidity 41%
Rainfall -999.00 in
Snow Depth Not available.
UV 1 out of 12
Pollen .10 out of 12
Air Quality Not available.
Flu Activity Not available.
METAR KI35 302055Z AUTO 27008KT 10SM SCT042 02/M07 A3033 RMK AO1

More Conditions Fewer Conditions

Pressure 30.33 in
Visibility 10.0 miles
Clouds Scattered Clouds 4200 ft
Windchill 35 °F
Dew Point 17 °F
Humidity 41%
Rainfall -999.00 in
Snow Depth Not available.
UV 1 out of 12
Pollen .10 out of 12
Air Quality Not available.
Flu Activity Not available.
METAR KI35 302055Z AUTO 27008KT 10SM SCT042 02/M07 A3033 RMK AO1

More Conditions Fewer Conditions

10-Day Weather Forecast

Almanac

Astronomy

Jan. 30, 2015 Rise Set
Actual Time
Civil Twilight
Nautical Twilight
Astronomical Twilight
Moon
Length of Visible Light
Length of Day
Tomorrow will be .
, % of the Moon is Illuminated

Today's Extremes

State Highs State Lows

Community

WunderPhotos

Upload Photos

1,791,895 photos uploaded!

WunderBlogs® & News

Nearby

Air Quality

  Air Quality AQ Index Pollutant
Not available.

Snow Depth

Station Depth Elevation

Earthquake Activity

City Distance Mag. Time & Date
Minimum magnitude displayed is 2.5.

Coastal Water Temperatures

Place Temperature

Nearby Weather Stations